Time;durP1;ratioP1;P1;durP2;ratioP2;P2;SDS_P1;SDS_P2;PMS_P1;PMS_P2;Temp;Humidity;BMP_temperature;BMP_pressure;BME280_temperature;BME280_humidity;BME280_pressure;Samples;Min_cycle;Max_cycle;Signal;HPM_P1;HPM_P2
2023/08/05 00:00:02;;;;;;;7.32;2.62;;;;;;;21.02;90.20;99771.53;5451451;32;34902;-65
2023/08/05 00:03:04;;;;;;;16.62;4.78;;;;;;;20.04;99.02;99710.16;5443275;32;34828;-66
2023/08/05 00:06:07;;;;;;;12.75;5.07;;;;;;;19.86;100.00;99669.97;5457432;32;34530;-76
2023/08/05 00:09:09;;;;;;;;;;;;;;;19.65;100.00;99528.75;5444615;32;34877;-76
2023/08/05 00:12:14;;;;;;;11.03;5.87;;;;;;;19.47;100.00;99336.69;5451072;32;34943;-77
2023/08/05 00:15:16;;;;;;;11.18;5.75;;;;;;;19.57;100.00;99301.19;5454106;32;35203;-67
2023/08/05 00:18:18;;;;;;;9.40;5.10;;;;;;;20.25;100.00;99349.84;5455163;32;35197;-75
2023/08/05 00:21:21;;;;;;;5.93;3.40;;;;;;;20.49;100.00;99346.69;5454232;32;35408;-65
2023/08/05 00:24:23;;;;;;;10.65;6.57;;;;;;;20.30;100.00;99344.91;5454888;32;35343;-76
2023/08/05 00:27:25;;;;;;;13.68;7.95;;;;;;;20.38;100.00;99358.34;5442984;32;35339;-78
2023/08/05 00:30:27;;;;;;;13.45;8.25;;;;;;;20.72;100.00;99349.78;5458529;32;35339;-75
2023/08/05 00:33:30;;;;;;;11.40;6.07;;;;;;;20.58;100.00;99395.66;5456296;32;35028;-76
2023/08/05 00:36:34;;;;;;;10.75;6.10;;;;;;;20.63;100.00;99399.56;5452550;32;34285;-65
2023/08/05 00:39:36;;;;;;;11.27;6.70;;;;;;;20.67;100.00;99376.06;5437482;32;35162;-77
2023/08/05 00:42:38;;;;;;;12.18;7.37;;;;;;;20.81;100.00;99368.44;5426272;32;34980;-76
2023/08/05 00:45:41;;;;;;;13.93;6.80;;;;;;;20.84;100.00;99380.62;5459309;32;34138;-66
2023/08/05 00:48:43;;;;;;;10.15;6.57;;;;;;;20.91;100.00;99396.88;5454851;32;34140;-66
2023/08/05 00:51:45;;;;;;;11.40;5.97;;;;;;;20.60;100.00;99399.84;5447579;32;34691;-77
2023/08/05 00:54:47;;;;;;;11.12;6.07;;;;;;;20.64;100.00;99369.22;5456097;32;34886;-77
2023/08/05 00:57:50;;;;;;;10.73;5.25;;;;;;;20.71;100.00;99292.03;5453393;32;34803;-77
2023/08/05 01:00:52;;;;;;;10.70;4.47;;;;;;;20.92;100.00;99339.81;5441898;32;34942;-78
2023/08/05 01:03:56;;;;;;;8.00;3.72;;;;;;;20.62;100.00;99378.38;5454078;32;33193;-66
2023/08/05 01:06:59;;;;;;;7.93;3.92;;;;;;;21.40;100.00;99437.53;5456308;32;34975;-77
2023/08/05 01:10:01;;;;;;;6.03;3.30;;;;;;;20.89;100.00;99338.28;5429684;32;35011;-65
2023/08/05 01:13:03;;;;;;;6.43;3.58;;;;;;;21.10;100.00;99338.00;5441625;32;35122;-76
2023/08/05 01:16:05;;;;;;;6.55;3.42;;;;;;;20.72;100.00;99299.87;5451591;32;34018;-76
2023/08/05 01:19:11;;;;;;;7.05;3.58;;;;;;;20.41;100.00;99333.19;5450376;32;35087;-78
2023/08/05 01:22:21;;;;;;;6.93;3.80;;;;;;;20.49;100.00;99354.69;5440852;32;34207;-78
2023/08/05 01:25:28;;;;;;;8.25;4.50;;;;;;;21.04;100.00;99342.09;5439951;32;34191;-77
2023/08/05 01:28:31;;;;;;;9.05;4.65;;;;;;;20.55;100.00;99308.72;5451798;32;34548;-66
2023/08/05 01:31:34;;;;;;;9.55;5.28;;;;;;;20.97;100.00;99287.63;5438670;32;34689;-68
2023/08/05 01:34:37;;;;;;;11.02;5.35;;;;;;;20.53;100.00;99278.66;5440740;32;34158;-67
2023/08/05 01:37:39;;;;;;;9.80;5.70;;;;;;;21.26;100.00;99275.84;5434915;32;34322;-79
2023/08/05 01:40:42;;;;;;;10.65;6.25;;;;;;;21.48;97.96;99251.31;5453895;32;35351;-67
2023/08/05 01:43:44;;;;;;;11.00;6.37;;;;;;;21.28;100.00;99249.81;5443696;32;34276;-77
2023/08/05 01:46:46;;;;;;;12.75;6.70;;;;;;;21.12;100.00;99271.03;5438766;32;34299;-78
2023/08/05 01:49:49;;;;;;;10.30;6.47;;;;;;;21.94;97.41;99364.25;5457037;32;34683;-76
2023/08/05 01:52:53;;;;;;;12.13;5.78;;;;;;;22.12;95.92;99426.62;5449022;32;34134;-79
2023/08/05 01:55:55;;;;;;;9.55;5.12;;;;;;;21.45;100.00;99349.72;5439677;32;34571;-67
2023/08/05 01:58:58;;;;;;;10.43;4.75;;;;;;;20.78;100.00;99277.91;5438934;32;34268;-78
2023/08/05 02:02:00;;;;;;;8.32;5.28;;;;;;;21.14;100.00;99251.22;5435735;32;34703;-77
2023/08/05 02:05:02;;;;;;;11.12;5.40;;;;;;;21.07;100.00;99245.66;5441235;32;35302;-66
2023/08/05 02:08:05;;;;;;;8.75;5.03;;;;;;;20.97;100.00;99249.38;5447280;32;34248;-77
2023/08/05 02:11:07;;;;;;;8.80;5.57;;;;;;;21.40;98.61;99237.91;5438814;32;35410;-65
2023/08/05 02:14:09;;;;;;;10.82;6.37;;;;;;;21.03;100.00;99241.59;5449600;32;34666;-65
2023/08/05 02:17:11;;;;;;;10.25;6.10;;;;;;;21.14;100.00;99261.91;5445686;32;34450;-66
2023/08/05 02:20:15;;;;;;;10.75;6.20;;;;;;;21.14;100.00;99253.87;5451381;32;34422;-66
2023/08/05 02:23:17;;;;;;;10.32;6.53;;;;;;;21.36;100.00;99242.72;5436506;32;35011;-66
2023/08/05 02:26:19;;;;;;;11.38;6.07;;;;;;;21.33;100.00;99250.22;5452061;32;34811;-67
2023/08/05 02:29:21;;;;;;;8.98;5.78;;;;;;;21.45;100.00;99253.47;5453999;32;34694;-78
2023/08/05 02:32:24;;;;;;;9.52;6.10;;;;;;;21.55;98.75;99241.66;5438427;32;33604;-78
2023/08/05 02:35:26;;;;;;;9.65;5.97;;;;;;;21.02;100.00;99221.22;5451199;32;35617;-80
2023/08/05 02:38:28;;;;;;;11.27;6.43;;;;;;;21.00;100.00;99185.81;5449678;32;34209;-66
2023/08/05 02:41:30;;;;;;;10.60;6.07;;;;;;;21.35;100.00;99192.09;5450305;32;34608;-78
2023/08/05 02:44:33;;;;;;;9.90;6.10;;;;;;;21.30;100.00;99179.19;5438607;32;33997;-66
2023/08/05 02:47:35;;;;;;;9.20;5.60;;;;;;;21.23;100.00;99171.94;5427209;32;34765;-77
2023/08/05 02:50:37;;;;;;;8.45;5.05;;;;;;;21.40;100.00;99199.66;5453581;32;34929;-66
2023/08/05 02:53:39;;;;;;;8.35;5.30;;;;;;;22.42;93.05;99218.34;5451366;32;34287;-80
2023/08/05 02:56:42;;;;;;;11.18;5.25;;;;;;;21.28;97.57;99231.09;5454151;32;35165;-67
2023/08/05 02:59:44;;;;;;;8.48;4.87;;;;;;;21.89;93.55;99240.84;5440471;32;35139;-66
2023/08/05 03:02:46;;;;;;;9.82;5.00;;;;;;;21.83;94.05;99234.31;5451695;32;34709;-78
2023/08/05 03:05:48;;;;;;;8.75;4.65;;;;;;;21.92;94.75;99213.78;5455368;32;35263;-78
2023/08/05 03:08:51;;;;;;;9.18;4.40;;;;;;;21.67;97.15;99191.44;5454080;32;34459;-77
2023/08/05 03:11:53;;;;;;;6.68;4.00;;;;;;;22.26;91.14;99204.91;5452967;32;34629;-75
2023/08/05 03:14:55;;;;;;;7.20;4.18;;;;;;;22.18;92.04;99216.44;5441704;32;34053;-79
2023/08/05 03:17:57;;;;;;;7.80;4.40;;;;;;;22.12;93.80;99246.50;5436643;32;33950;-79
2023/08/05 03:21:00;;;;;;;7.62;4.37;;;;;;;21.95;95.78;99253.56;5460086;32;34886;-67
2023/08/05 03:24:02;;;;;;;9.50;5.12;;;;;;;22.57;89.52;99291.66;5452320;32;34546;-67
2023/08/05 03:27:04;;;;;;;10.75;5.68;;;;;;;21.28;99.94;99324.63;5438328;32;34804;-79
2023/08/05 03:30:07;;;;;;;11.05;6.40;;;;;;;21.44;100.00;99335.47;5455350;32;35363;-79
2023/08/05 03:33:09;;;;;;;8.13;5.80;;;;;;;21.47;98.86;99326.31;5448929;32;34986;-76
2023/08/05 03:36:11;;;;;;;10.00;6.82;;;;;;;21.42;100.00;99246.59;5441155;32;34840;-79
2023/08/05 03:39:13;;;;;;;12.32;8.25;;;;;;;21.46;100.00;99228.44;5452558;32;35310;-66
2023/08/05 03:42:15;;;;;;;10.48;6.57;;;;;;;21.69;97.37;99237.56;5439739;32;34735;-77
2023/08/05 03:45:18;;;;;;;9.35;5.85;;;;;;;22.64;91.62;99276.59;5443904;32;34654;-67
2023/08/05 03:48:20;;;;;;;10.82;6.75;;;;;;;22.00;92.37;99311.97;5440436;32;35462;-67
2023/08/05 03:51:22;;;;;;;10.48;6.72;;;;;;;21.86;95.96;99332.94;5457476;32;34198;-74
2023/08/05 03:54:25;;;;;;;10.57;6.57;;;;;;;21.77;96.71;99314.34;5434413;32;33840;-79
2023/08/05 03:57:27;;;;;;;10.77;6.25;;;;;;;21.45;100.00;99283.72;5443600;32;35231;-65
2023/08/05 04:00:29;;;;;;;12.48;6.25;;;;;;;21.31;100.00;99262.88;5454878;32;34166;-66
2023/08/05 04:03:31;;;;;;;10.35;6.43;;;;;;;21.63;100.00;99243.53;5455551;32;34633;-74
2023/08/05 04:06:34;;;;;;;12.80;7.37;;;;;;;21.69;100.00;99256.28;5456674;32;34878;-75
2023/08/05 04:09:37;;;;;;;12.23;6.97;;;;;;;21.90;97.59;99271.97;5456211;32;35349;-66
2023/08/05 04:12:39;;;;;;;10.23;6.82;;;;;;;22.42;93.39;99277.22;5455350;32;34774;-75
2023/08/05 04:15:42;;;;;;;10.98;7.18;;;;;;;22.17;96.31;99278.97;5440024;32;34917;-65
2023/08/05 04:18:46;;;;;;;;;;;;;;;22.20;96.28;99275.13;5452044;32;35264;-66
2023/08/05 04:21:51;;;;;;;10.95;6.47;;;;;;;22.16;94.61;99271.97;5453712;32;34255;-77
2023/08/05 04:24:53;;;;;;;10.52;6.80;;;;;;;21.74;97.84;99259.31;5443099;32;34823;-75
2023/08/05 04:27:58;;;;;;;10.40;7.00;;;;;;;21.90;96.09;99266.63;5453575;32;34669;-77
2023/08/05 04:31:01;;;;;;;9.15;6.25;;;;;;;21.92;95.37;99261.09;5455347;32;34570;-79
2023/08/05 04:34:03;;;;;;;9.82;6.40;;;;;;;22.28;94.45;99275.16;5456146;32;34800;-78
2023/08/05 04:37:21;;;;;;;10.55;5.80;;;;;;;21.98;94.72;99266.66;5452820;32;35797;-77
2023/08/05 04:40:23;;;;;;;9.88;6.75;;;;;;;22.42;91.48;99247.78;5441599;32;34283;-79
2023/08/05 04:43:26;;;;;;;10.18;6.45;;;;;;;22.50;90.69;99257.66;5450570;32;33501;-79
2023/08/05 04:46:28;;;;;;;9.63;6.05;;;;;;;22.61;90.43;99258.22;5454079;32;35027;-78
2023/08/05 04:49:30;;;;;;;9.05;5.85;;;;;;;22.68;90.72;99245.84;5457493;32;34171;-67
2023/08/05 04:52:32;;;;;;;9.88;5.57;;;;;;;22.54;89.96;99257.19;5437116;32;34768;-68
2023/08/05 04:55:35;;;;;;;9.52;5.75;;;;;;;22.59;91.10;99260.19;5458753;32;34761;-67
2023/08/05 04:58:37;;;;;;;9.57;5.75;;;;;;;22.12;94.15;99252.69;5449339;32;35082;-77
2023/08/05 05:01:39;;;;;;;9.48;6.40;;;;;;;22.60;90.51;99261.84;5440002;32;35817;-66
2023/08/05 05:04:41;;;;;;;11.05;6.18;;;;;;;22.65;91.98;99272.09;5451895;32;34185;-78
2023/08/05 05:07:43;;;;;;;10.82;6.18;;;;;;;22.46;91.01;99269.69;5448731;32;34698;-78
2023/08/05 05:10:46;;;;;;;9.98;6.53;;;;;;;22.32;94.89;99260.47;5460163;32;34500;-78
2023/08/05 05:13:50;;;;;;;10.07;6.40;;;;;;;22.23;94.40;99256.09;5450257;32;34547;-67
2023/08/05 05:16:52;;;;;;;9.77;6.78;;;;;;;22.56;93.44;99265.06;5451952;32;36304;-67
2023/08/05 05:19:55;;;;;;;;;;;;;;;22.41;92.90;99252.31;5453071;32;34444;-79
2023/08/05 05:22:57;;;;;;;10.07;6.33;;;;;;;22.16;95.67;99254.06;5448911;32;34318;-66
2023/08/05 05:25:59;;;;;;;10.07;6.22;;;;;;;22.79;92.00;99246.50;5448053;32;35349;-75
2023/08/05 05:29:02;;;;;;;9.35;6.05;;;;;;;22.83;89.19;99239.81;5435705;32;34473;-77
2023/08/05 05:32:05;;;;;;;8.95;6.00;;;;;;;22.43;93.78;99225.38;5454254;32;34307;-79
2023/08/05 05:35:07;;;;;;;11.63;6.22;;;;;;;22.75;90.64;99223.75;5439559;32;34657;-79
2023/08/05 05:38:09;;;;;;;;;;;;;;;22.93;90.66;99236.00;5434642;32;34521;-68
2023/08/05 05:41:11;;;;;;;9.80;5.80;;;;;;;23.39;85.97;99235.47;5453573;32;34759;-79
2023/08/05 05:44:13;;;;;;;10.80;6.07;;;;;;;23.19;88.68;99243.06;5441689;32;34689;-67
2023/08/05 05:47:16;;;;;;;9.65;5.45;;;;;;;23.22;86.93;99240.84;5455937;32;34923;-79
2023/08/05 05:50:19;;;;;;;8.02;5.30;;;;;;;23.61;83.11;99239.28;5436172;32;35234;-66
2023/08/05 05:53:21;;;;;;;8.60;5.32;;;;;;;23.46;87.42;99239.16;5455255;32;34820;-67
2023/08/05 05:56:23;;;;;;;;;;;;;;;23.87;84.36;99228.34;5450925;32;36071;-67
2023/08/05 05:59:28;;;;;;;7.55;4.75;;;;;;;23.80;83.02;99224.69;5453363;32;35293;-78
2023/08/05 06:02:31;;;;;;;11.95;5.50;;;;;;;23.67;81.63;99228.75;5450806;32;34503;-66
2023/08/05 06:05:33;;;;;;;7.78;4.87;;;;;;;24.40;78.63;99234.84;5453213;32;34806;-66
2023/08/05 06:08:36;;;;;;;8.90;5.03;;;;;;;24.46;77.29;99229.59;5439190;32;34560;-67
2023/08/05 06:11:38;;;;;;;;;;;;;;;24.57;76.88;99239.09;5450537;32;35469;-67
2023/08/05 06:14:40;;;;;;;7.00;4.47;;;;;;;24.93;75.23;99238.53;5453851;32;34706;-79
2023/08/05 06:17:43;;;;;;;8.85;4.57;;;;;;;24.52;77.62;99241.47;5434711;32;34848;-79
2023/08/05 06:20:47;;;;;;;7.05;4.30;;;;;;;25.65;73.38;99236.22;5455520;32;35190;-67
2023/08/05 06:23:49;;;;;;;5.87;3.75;;;;;;;25.41;72.58;99239.16;5448735;32;35198;-67
2023/08/05 06:26:51;;;;;;;6.32;4.05;;;;;;;26.26;69.63;99241.41;5454289;32;34631;-78
2023/08/05 06:29:54;;;;;;;7.68;4.20;;;;;;;26.00;69.93;99239.19;5457078;32;35136;-66
2023/08/05 06:32:56;;;;;;;;;;;;;;;25.83;70.68;99238.59;5449337;32;34593;-79
2023/08/05 06:35:59;;;;;;;6.10;3.75;;;;;;;25.90;70.75;99253.78;5456905;32;34295;-67
2023/08/05 06:39:01;;;;;;;8.32;4.12;;;;;;;26.25;68.47;99256.72;5447227;32;35325;-67
2023/08/05 06:42:04;;;;;;;6.18;3.60;;;;;;;26.74;66.69;99253.41;5457497;32;35412;-66
2023/08/05 06:45:07;;;;;;;5.82;3.70;;;;;;;26.87;65.72;99255.38;5451812;32;35275;-67
2023/08/05 06:48:10;;;;;;;7.30;4.00;;;;;;;27.17;65.46;99253.41;5435518;32;34133;-80
2023/08/05 06:51:12;;;;;;;6.60;3.85;;;;;;;28.13;61.45;99237.47;5462395;32;34740;-80
2023/08/05 06:54:14;;;;;;;26.25;11.55;;;;;;;29.55;55.95;99224.66;5451118;32;34064;-76
2023/08/05 06:57:17;;;;;;;6.20;3.10;;;;;;;28.94;57.56;99229.44;5457814;32;34513;-78
2023/08/05 07:00:19;;;;;;;5.20;3.10;;;;;;;31.14;50.58;99232.09;5452994;32;35270;-78
2023/08/05 07:03:23;;;;;;;4.43;2.80;;;;;;;29.68;54.17;99240.88;5453364;32;35170;-66
2023/08/05 07:06:25;;;;;;;7.43;3.17;;;;;;;29.09;56.46;99233.59;5456221;32;34526;-80
2023/08/05 07:09:27;;;;;;;8.93;3.22;;;;;;;29.38;56.06;99228.81;5450222;32;34570;-67
2023/08/05 07:12:30;;;;;;;5.87;3.08;;;;;;;29.82;53.33;99230.87;5453400;32;34408;-78
2023/08/05 07:15:36;;;;;;;7.30;3.08;;;;;;;30.91;50.39;99223.72;5452962;32;34803;-78
2023/08/05 07:18:38;;;;;;;7.65;3.37;;;;;;;29.67;53.35;99225.69;5456176;32;34732;-79
2023/08/05 07:21:40;;;;;;;7.65;3.62;;;;;;;29.77;52.64;99229.84;5453391;32;34493;-67
2023/08/05 07:24:42;;;;;;;6.25;3.78;;;;;;;27.77;58.64;99228.56;5453138;32;34120;-67
2023/08/05 07:27:44;;;;;;;9.90;3.25;;;;;;;26.86;63.24;99232.16;5450419;32;34044;-67
2023/08/05 07:30:47;;;;;;;6.50;3.85;;;;;;;27.20;61.31;99234.97;5451776;32;33891;-66
2023/08/05 07:33:51;;;;;;;12.07;3.83;;;;;;;27.07;62.86;99234.88;5450437;32;35203;-66
2023/08/05 07:36:53;;;;;;;9.30;4.18;;;;;;;27.78;59.98;99237.50;5451110;32;34706;-78
2023/08/05 07:39:57;;;;;;;7.03;3.70;;;;;;;27.34;61.89;99238.63;5454647;32;34492;-78
2023/08/05 07:42:59;;;;;;;6.95;4.00;;;;;;;26.90;63.30;99236.94;5447428;32;35307;-78
2023/08/05 07:46:05;;;;;;;12.00;4.35;;;;;;;27.12;63.17;99239.69;5454751;32;34958;-79
2023/08/05 07:49:08;;;;;;;9.27;4.25;;;;;;;26.91;64.95;99233.22;5438945;32;34888;-79
2023/08/05 07:52:10;;;;;;;9.00;3.90;;;;;;;27.58;61.41;99240.03;5443842;32;34383;-79
2023/08/05 07:55:12;;;;;;;10.77;4.15;;;;;;;27.24;62.25;99235.41;5448379;32;34665;-67
2023/08/05 07:58:15;;;;;;;9.20;4.35;;;;;;;27.75;60.65;99230.63;5439118;32;34776;-66
2023/08/05 08:01:21;;;;;;;10.25;4.72;;;;;;;27.18;62.43;99237.06;5457088;32;34795;-80
2023/08/05 08:04:24;;;;;;;9.43;4.05;;;;;;;27.90;60.30;99248.59;5409601;32;35192;-78
2023/08/05 08:07:26;;;;;;;10.77;5.28;;;;;;;27.18;63.79;99253.22;5443863;32;34124;-67
2023/08/05 08:10:28;;;;;;;9.50;4.60;;;;;;;27.67;61.28;99254.22;5452755;32;34632;-68
2023/08/05 08:13:30;;;;;;;8.77;5.15;;;;;;;27.19;62.73;99260.28;5435338;32;35371;-79
2023/08/05 08:16:32;;;;;;;7.40;4.22;;;;;;;28.19;59.91;99242.06;5457444;32;34972;-79
2023/08/05 08:19:34;;;;;;;7.43;4.43;;;;;;;27.11;64.03;99262.25;5449239;32;34633;-80
2023/08/05 08:22:37;;;;;;;11.52;5.22;;;;;;;28.16;59.88;99250.56;5455643;32;34445;-67
2023/08/05 08:25:39;;;;;;;10.95;4.60;;;;;;;27.73;61.87;99248.88;5442470;32;35167;-75
2023/08/05 08:28:41;;;;;;;8.80;5.50;;;;;;;27.40;62.69;99239.69;5424689;32;34326;-79
2023/08/05 08:31:43;;;;;;;10.88;5.43;;;;;;;27.20;63.33;99247.63;5455059;32;35400;-68
2023/08/05 08:34:48;;;;;;;9.13;6.15;;;;;;;27.90;61.50;99259.38;5443581;32;34444;-79
2023/08/05 08:37:50;;;;;;;9.98;6.28;;;;;;;27.97;60.29;99252.16;5454387;32;35266;-79
2023/08/05 08:40:57;;;;;;;9.35;6.40;;;;;;;27.57;61.34;99256.44;5459947;32;34842;-68
2023/08/05 08:44:02;;;;;;;9.45;6.22;;;;;;;28.00;60.29;99266.06;5458882;32;34019;-78
2023/08/05 08:47:05;;;;;;;11.85;6.95;;;;;;;28.43;58.46;99268.59;5416726;32;36408;-68
2023/08/05 08:50:07;;;;;;;12.75;7.53;;;;;;;28.13;59.81;99277.97;5443190;32;35184;-79
2023/08/05 08:53:12;;;;;;;9.68;6.55;;;;;;;27.45;62.48;99281.25;5456538;32;35648;-67
2023/08/05 08:56:14;;;;;;;9.23;6.97;;;;;;;27.29;62.33;99280.69;5443763;32;34955;-79
2023/08/05 08:59:17;;;;;;;10.20;6.50;;;;;;;28.37;59.40;99285.59;5432463;32;34784;-68
2023/08/05 09:02:25;;;;;;;11.52;7.20;;;;;;;28.54;58.68;99284.22;5454565;32;34547;-68
2023/08/05 09:05:31;;;;;;;14.23;8.13;;;;;;;28.41;59.24;99281.47;5441443;32;34055;-79
2023/08/05 09:08:34;;;;;;;12.25;8.05;;;;;;;27.87;61.40;99281.34;5442836;32;34921;-79
2023/08/05 09:11:36;;;;;;;11.12;7.37;;;;;;;27.07;64.51;99279.88;5451237;32;35110;-79
2023/08/05 09:14:38;;;;;;;10.90;8.20;;;;;;;27.39;64.40;99287.44;5455263;32;34340;-66
2023/08/05 09:17:41;;;;;;;11.68;7.80;;;;;;;27.01;65.96;99281.44;5448069;32;34888;-79
2023/08/05 09:20:43;;;;;;;13.00;8.23;;;;;;;27.90;62.52;99286.38;5457231;32;33973;-67
2023/08/05 09:23:46;;;;;;;18.08;10.45;;;;;;;27.91;62.38;99282.66;5448509;32;33370;-79
2023/08/05 09:26:55;;;;;;;14.10;8.43;;;;;;;27.16;65.92;99274.16;5455566;32;34806;-67
2023/08/05 09:30:13;;;;;;;12.43;8.27;;;;;;;26.58;68.80;99267.91;5441859;32;34588;-68
2023/08/05 09:33:15;;;;;;;12.88;8.52;;;;;;;27.54;65.17;99253.06;5434675;32;34141;-78
2023/08/05 09:36:22;;;;;;;15.18;8.63;;;;;;;27.50;65.65;99264.47;5452705;32;35014;-67
2023/08/05 09:39:24;;;;;;;13.23;8.70;;;;;;;28.03;63.14;99272.97;5452903;32;34617;-67
2023/08/05 09:42:28;;;;;;;12.63;8.88;;;;;;;28.04;62.90;99259.25;5453390;32;33294;-67
2023/08/05 09:45:33;;;;;;;11.57;9.18;;;;;;;27.88;63.16;99254.16;5455429;32;34389;-68
2023/08/05 09:48:44;;;;;;;13.20;9.15;;;;;;;28.75;61.75;99245.41;5452965;32;34889;-77
2023/08/05 09:51:47;;;;;;;12.73;8.98;;;;;;;28.82;60.75;99243.53;5434705;32;35215;-78
2023/08/05 09:55:18;;;;;;;14.07;9.40;;;;;;;28.79;61.08;99233.16;5452830;32;34306;-68
2023/08/05 09:58:23;;;;;;;14.35;9.40;;;;;;;29.56;58.36;99233.59;5454014;32;35859;-68
2023/08/05 10:01:25;;;;;;;13.05;9.73;;;;;;;28.93;60.29;99233.19;5439725;32;34594;-68
2023/08/05 10:04:29;;;;;;;11.73;10.20;;;;;;;29.27;59.75;99230.28;5456381;32;35743;-75
2023/08/05 10:07:31;;;;;;;16.27;12.10;;;;;;;30.54;54.85;99237.06;5451893;32;35319;-76
2023/08/05 10:10:37;;;;;;;15.25;11.10;;;;;;;30.38;55.34;99242.97;5453972;32;34804;-68
2023/08/05 10:13:42;;;;;;;21.08;11.25;;;;;;;29.47;57.87;99240.25;5444498;32;34754;-67
2023/08/05 10:16:44;;;;;;;16.50;12.10;;;;;;;28.94;59.85;99254.63;5438175;32;34928;-79
2023/08/05 10:19:49;;;;;;;15.70;13.15;;;;;;;29.10;59.54;99253.37;5441274;32;34343;-66
2023/08/05 10:23:03;;;;;;;17.90;12.15;;;;;;;29.67;57.58;99254.63;5440307;32;34735;-67
2023/08/05 10:26:05;;;;;;;17.25;13.02;;;;;;;29.71;58.21;99246.94;5451475;32;34329;-75
2023/08/05 10:29:27;;;;;;;15.50;12.52;;;;;;;28.80;60.75;99250.19;5458730;32;35121;-68
2023/08/05 10:32:29;;;;;;;18.65;12.60;;;;;;;28.99;60.88;99254.00;5445701;32;34130;-67
2023/08/05 10:35:41;;;;;;;17.00;12.75;;;;;;;29.06;60.10;99247.56;5454315;32;34683;-79
2023/08/05 10:38:43;;;;;;;16.35;13.45;;;;;;;29.68;58.41;99237.34;5451452;32;34930;-78
2023/08/05 10:41:45;;;;;;;18.73;12.63;;;;;;;30.08;56.79;99227.25;5451237;32;36314;-68
2023/08/05 10:44:53;;;;;;;18.42;13.23;;;;;;;29.63;58.47;99231.75;5428068;32;34200;-68
2023/08/05 10:47:56;;;;;;;17.05;13.77;;;;;;;30.31;56.19;99242.19;5445469;32;35807;-67
2023/08/05 10:50:58;;;;;;;15.25;13.15;;;;;;;29.55;57.95;99240.06;5456327;32;34531;-76
2023/08/05 10:54:01;;;;;;;17.10;14.13;;;;;;;30.04;56.93;99236.00;5405285;32;35305;-68
2023/08/05 10:57:32;;;;;;;15.85;13.88;;;;;;;30.66;54.37;99232.63;5446192;32;34601;-68
2023/08/05 11:00:37;;;;;;;10.95;7.10;;;;;;;29.89;56.90;99231.69;5440277;32;34582;-67
2023/08/05 11:03:43;;;;;;;11.27;7.15;;;;;;;30.28;56.10;99239.91;5448511;32;35118;-69
2023/08/05 11:06:45;;;;;;;9.82;6.80;;;;;;;29.39;57.70;99233.19;5457093;32;35376;-79
2023/08/05 11:09:48;;;;;;;11.50;6.47;;;;;;;30.53;54.65;99213.72;5451528;32;34854;-78
2023/08/05 11:12:54;;;;;;;10.57;7.25;;;;;;;31.11;52.77;99227.12;5454320;32;34630;-67
2023/08/05 11:16:16;;;;;;;10.80;6.28;;;;;;;31.60;50.99;99241.75;5449693;32;34042;-68
2023/08/05 11:19:19;;;;;;;15.80;7.60;;;;;;;30.40;54.14;99241.72;5440309;32;35333;-68
2023/08/05 11:22:29;;;;;;;10.77;7.45;;;;;;;29.00;58.92;99242.97;5458397;32;34124;-79
2023/08/05 11:25:32;;;;;;;10.40;7.95;;;;;;;29.44;57.76;99246.09;5453568;32;34742;-77
2023/08/05 11:28:35;;;;;;;13.95;8.48;;;;;;;29.88;57.36;99240.00;5451978;32;34460;-67
2023/08/05 11:31:37;;;;;;;13.18;8.80;;;;;;;29.05;59.00;99243.19;5441923;32;34864;-68
2023/08/05 11:34:40;;;;;;;13.27;8.52;;;;;;;28.79;60.22;99245.84;5435527;32;35618;-80
2023/08/05 11:37:42;;;;;;;11.05;8.85;;;;;;;28.61;60.35;99241.00;5444990;32;34080;-66
2023/08/05 11:40:52;;;;;;;13.73;10.27;;;;;;;29.52;57.92;99244.03;5458319;32;34524;-68
2023/08/05 11:43:54;;;;;;;17.45;11.60;;;;;;;30.38;55.23;99249.22;5459477;32;35061;-80
2023/08/05 11:47:02;;;;;;;14.75;12.20;;;;;;;29.07;58.66;99257.34;5458410;32;34612;-67
2023/08/05 11:50:09;;;;;;;15.48;11.93;;;;;;;29.60;57.25;99245.69;5459150;32;35496;-79
2023/08/05 11:53:12;;;;;;;18.48;13.50;;;;;;;29.17;59.27;99242.56;5445522;32;34927;-80
2023/08/05 11:56:33;;;;;;;18.27;13.25;;;;;;;29.28;58.42;99248.19;5459900;32;34458;-68
2023/08/05 11:59:45;;;;;;;18.77;12.95;;;;;;;29.44;58.25;99246.09;5444783;32;34672;-67
2023/08/05 12:02:51;;;;;;;20.58;12.00;;;;;;;29.56;58.16;99244.44;5454286;32;34841;-79
2023/08/05 12:06:00;;;;;;;17.08;11.75;;;;;;;29.68;57.30;99238.16;5459829;32;35324;-67
2023/08/05 12:09:04;;;;;;;16.80;11.77;;;;;;;29.77;56.72;99240.69;5444952;32;34976;-78
2023/08/05 12:12:15;;;;;;;15.48;13.05;;;;;;;29.75;57.48;99242.75;5455882;32;35589;-77
2023/08/05 12:15:25;;;;;;;16.10;13.95;;;;;;;29.51;57.85;99234.25;5462823;32;35364;-76
2023/08/05 12:18:30;;;;;;;15.82;13.40;;;;;;;29.48;58.26;99237.34;5454746;32;34133;-68
2023/08/05 12:21:32;;;;;;;17.00;13.07;;;;;;;30.12;56.08;99230.38;5456825;32;35557;-81
2023/08/05 12:24:40;;;;;;;19.67;13.45;;;;;;;30.16;54.96;99223.50;5458312;32;35439;-68
2023/08/05 12:27:42;;;;;;;20.65;14.13;;;;;;;29.98;55.94;99226.03;5448860;32;34585;-81
2023/08/05 12:30:44;;;;;;;19.73;14.25;;;;;;;30.04;55.25;99225.16;5461077;32;34376;-68
2023/08/05 12:33:47;;;;;;;17.15;14.48;;;;;;;29.93;56.12;99224.78;5449207;32;34876;-78
2023/08/05 12:36:49;;;;;;;20.25;16.02;;;;;;;30.82;53.63;99222.31;5454610;32;34526;-67
2023/08/05 12:39:51;;;;;;;18.75;16.27;;;;;;;29.94;55.91;99221.00;5453950;32;34522;-78
2023/08/05 12:42:53;;;;;;;17.62;15.10;;;;;;;29.45;57.86;99213.41;5426450;32;35390;-68
2023/08/05 12:45:56;;;;;;;17.00;14.57;;;;;;;31.30;52.54;99205.47;5443582;32;35431;-79
2023/08/05 12:48:58;;;;;;;15.70;13.80;;;;;;;30.54;54.81;99198.28;5450344;32;34871;-67
2023/08/05 12:52:00;;;;;;;18.00;13.70;;;;;;;30.67;53.67;99195.50;5441744;32;34610;-67
2023/08/05 12:55:06;;;;;;;18.02;13.95;;;;;;;31.61;50.94;99193.69;5455684;32;36442;-79
2023/08/05 12:58:08;;;;;;;16.20;14.20;;;;;;;31.51;51.19;99195.03;5437354;32;34627;-68
2023/08/05 13:01:11;;;;;;;16.58;14.48;;;;;;;32.33;49.00;99179.28;5449024;32;35154;-68
2023/08/05 13:04:13;;;;;;;18.42;14.38;;;;;;;31.89;50.51;99177.75;5452037;32;34424;-79
2023/08/05 13:07:15;;;;;;;16.25;12.82;;;;;;;32.01;50.83;99172.34;5453601;32;34781;-66
2023/08/05 13:10:17;;;;;;;17.60;14.15;;;;;;;32.85;48.21;99174.12;5455669;32;34831;-68
2023/08/05 13:13:20;;;;;;;15.05;13.45;;;;;;;31.98;49.73;99172.81;5439917;32;34689;-79
2023/08/05 13:16:22;;;;;;;17.12;15.10;;;;;;;30.73;53.29;99171.06;5429556;32;34087;-79
2023/08/05 13:19:24;;;;;;;21.17;15.48;;;;;;;31.96;49.99;99159.47;5454710;32;34834;-79
2023/08/05 13:22:27;;;;;;;19.48;14.77;;;;;;;31.96;48.79;99158.62;5449207;32;34154;-80
2023/08/05 13:25:29;;;;;;;20.15;15.05;;;;;;;31.46;50.12;99159.59;5451410;32;34610;-80
2023/08/05 13:28:31;;;;;;;17.45;14.63;;;;;;;31.45;49.36;99162.53;5437961;32;35119;-79
2023/08/05 13:31:34;;;;;;;16.98;14.02;;;;;;;31.97;48.29;99152.97;5454099;32;35588;-67
2023/08/05 13:34:36;;;;;;;16.98;13.98;;;;;;;31.59;49.39;99142.31;5452441;32;34766;-79
2023/08/05 13:37:40;;;;;;;19.17;15.10;;;;;;;31.18;51.02;99138.34;5442070;32;34865;-78
2023/08/05 13:40:42;;;;;;;16.58;13.73;;;;;;;31.26;50.08;99129.09;5459028;32;34749;-80
2023/08/05 13:43:45;;;;;;;16.87;13.80;;;;;;;31.26;49.87;99142.69;5447148;32;34408;-68
2023/08/05 13:46:47;;;;;;;16.62;14.25;;;;;;;31.41;49.85;99143.12;5450875;32;34578;-68
2023/08/05 13:49:50;;;;;;;17.67;14.27;;;;;;;31.30;50.31;99140.31;5455383;32;34295;-78
2023/08/05 13:52:52;;;;;;;15.60;13.82;;;;;;;31.01;51.15;99159.78;5412103;32;34253;-78
2023/08/05 13:55:56;;;;;;;16.20;13.93;;;;;;;30.77;52.32;99165.19;5457147;32;35283;-77
2023/08/05 13:58:58;;;;;;;16.05;12.93;;;;;;;30.56;53.38;99178.03;5438045;32;34875;-79
2023/08/05 14:02:00;;;;;;;19.98;13.05;;;;;;;30.58;54.15;99180.50;5454025;32;34867;-68
2023/08/05 14:05:03;;;;;;;14.73;12.55;;;;;;;30.84;53.77;99176.81;5452260;32;34672;-79
2023/08/05 14:08:05;;;;;;;14.57;12.27;;;;;;;30.91;52.72;99173.00;5449590;32;34527;-67
2023/08/05 14:11:07;;;;;;;18.75;14.02;;;;;;;30.67;53.81;99171.09;5440097;32;33532;-79
2023/08/05 14:14:10;;;;;;;18.27;14.23;;;;;;;30.37;53.66;99173.56;5433236;32;143213;-80